Time;durP1;ratioP1;P1;durP2;ratioP2;P2;SDS_P1;SDS_P2;PMS_P1;PMS_P2;Temp;Humidity;BMP_temperature;BMP_pressure;BME280_temperature;BME280_humidity;BME280_pressure;Samples;Min_cycle;Max_cycle;Signal;HPM_P1;HPM_P2
2022/06/27 00:00:21;;;;;;;10.43;5.97;;;;;;;21.72;62.88;101521.38;10488347;28;20048;-74
2022/06/27 00:05:24;;;;;;;7.88;6.07;;;;;;;21.69;62.58;101525.63;10476851;28;20552;-74
2022/06/27 00:10:26;;;;;;;6.82;6.13;;;;;;;21.63;62.48;101525.00;10474642;28;20133;-74
2022/06/27 00:15:28;;;;;;;8.98;5.78;;;;;;;21.64;63.29;101525.84;10486939;28;20041;-72
2022/06/27 00:20:31;;;;;;;7.35;6.57;;;;;;;21.62;63.50;101522.56;10474472;28;20049;-74
2022/06/27 00:25:33;;;;;;;6.15;5.55;;;;;;;21.62;63.66;101523.38;10480288;28;20057;-73
2022/06/27 00:30:35;;;;;;;7.30;5.72;;;;;;;21.62;63.35;101528.16;10487059;28;20060;-74
2022/06/27 00:35:38;;;;;;;6.22;5.63;;;;;;;21.65;63.38;101536.66;10433470;28;20078;-74
2022/06/27 00:40:40;;;;;;;7.05;5.72;;;;;;;21.65;63.65;101541.44;10453346;28;20041;-74
2022/06/27 00:45:42;;;;;;;8.60;5.95;;;;;;;21.64;63.74;101542.59;10468858;28;20052;-74
2022/06/27 00:50:45;;;;;;;6.82;5.75;;;;;;;21.62;63.74;101540.13;10484964;28;20041;-75
2022/06/27 00:55:47;;;;;;;6.45;5.85;;;;;;;21.59;64.09;101534.41;10475391;28;20558;-75
2022/06/27 01:00:50;;;;;;;6.20;5.07;;;;;;;21.54;64.01;101534.59;10482010;28;20534;-75
2022/06/27 01:05:52;;;;;;;6.25;5.65;;;;;;;21.45;64.75;101537.41;10463460;28;20463;-74
2022/06/27 01:10:54;;;;;;;6.05;5.55;;;;;;;21.41;65.12;101544.81;10475658;28;20059;-74
2022/06/27 01:15:57;;;;;;;5.80;5.30;;;;;;;21.37;65.20;101541.03;10432122;28;20036;-74
2022/06/27 01:20:59;;;;;;;6.22;5.40;;;;;;;21.48;65.07;101547.06;10454917;28;20044;-74
2022/06/27 01:26:03;;;;;;;6.10;5.35;;;;;;;21.51;64.57;101546.41;10425553;28;20041;-75
2022/06/27 01:31:05;;;;;;;6.60;5.80;;;;;;;21.58;64.98;101553.13;10445192;28;20041;-75
2022/06/27 01:41:28;;;;;;;5.28;4.88;;;;;;;21.73;64.80;101548.16;10466253;28;20056;-75
2022/06/27 01:46:58;;;;;;;6.55;5.90;;;;;;;21.74;63.89;101552.59;10442399;28;20503;-75
2022/06/27 01:52:01;;;;;;;7.50;5.85;;;;;;;21.86;63.79;101555.47;10447335;28;20558;-73
2022/06/27 01:57:05;;;;;;;6.00;5.40;;;;;;;21.99;63.66;101548.84;10448812;28;20454;-75
2022/06/27 02:02:08;;;;;;;9.48;5.97;;;;;;;22.18;63.78;101552.06;10433885;28;20040;-76
2022/06/27 02:07:12;;;;;;;7.80;6.05;;;;;;;22.34;64.04;101548.69;10466967;28;20057;-76
2022/06/27 02:12:21;;;;;;;6.40;5.63;;;;;;;22.49;63.75;101550.91;10482604;28;20053;-76
2022/06/27 02:17:24;;;;;;;6.03;5.47;;;;;;;22.78;63.14;101547.22;10458561;28;20419;-77
2022/06/27 02:22:28;;;;;;;6.38;5.68;;;;;;;23.00;63.77;101549.69;10460209;28;20045;-76
2022/06/27 02:27:33;;;;;;;6.28;5.68;;;;;;;23.24;63.37;101553.72;10458344;28;20487;-76
2022/06/27 02:32:36;;;;;;;9.40;6.43;;;;;;;23.50;62.32;101559.91;10483139;28;20056;-76
2022/06/27 02:37:41;;;;;;;9.80;6.13;;;;;;;23.82;62.36;101555.44;10472426;28;20040;-76
2022/06/27 02:42:43;;;;;;;7.22;5.88;;;;;;;23.93;62.39;101562.19;10458806;28;20534;-76
2022/06/27 02:47:48;;;;;;;7.45;6.22;;;;;;;24.16;61.24;101559.75;10489372;28;20049;-76
2022/06/27 02:52:53;;;;;;;6.70;6.00;;;;;;;24.38;61.12;101563.28;10490337;28;20052;-76
2022/06/27 02:58:37;;;;;;;10.35;6.38;;;;;;;24.34;61.03;101563.19;10472516;28;20056;-76
2022/06/27 03:03:42;;;;;;;6.53;5.90;;;;;;;24.47;59.83;101562.00;10327657;28;20046;-83
2022/06/27 03:08:46;;;;;;;5.93;5.03;;;;;;;24.58;59.61;101551.09;10419854;28;20053;-80
2022/06/27 03:13:49;;;;;;;6.43;5.75;;;;;;;24.77;58.80;101556.88;10478453;28;20041;-79
2022/06/27 03:18:53;;;;;;;5.55;4.90;;;;;;;25.12;57.55;101551.50;10440458;28;20508;-79
2022/06/27 03:24:08;;;;;;;5.15;4.65;;;;;;;25.37;57.09;101555.03;10485216;28;20037;-79
2022/06/27 03:29:10;;;;;;;8.05;5.32;;;;;;;25.68;55.88;101557.06;10459358;28;20403;-80
2022/06/27 03:34:15;;;;;;;5.80;4.90;;;;;;;25.97;55.99;101567.06;10450541;28;20119;-80
2022/06/27 03:39:24;;;;;;;5.18;4.68;;;;;;;26.11;55.21;101558.97;10455320;28;20057;-80
2022/06/27 03:44:29;;;;;;;5.93;5.32;;;;;;;26.26;54.58;101560.16;10473686;28;20060;-79
2022/06/27 03:54:57;;;;;;;5.17;4.67;;;;;;;26.82;52.44;101562.63;10465220;28;20045;-80
2022/06/27 04:00:26;;;;;;;6.28;5.18;;;;;;;27.06;51.50;101555.09;10473946;28;21609;-80
2022/06/27 04:05:30;;;;;;;6.45;5.82;;;;;;;27.47;51.62;101554.31;10449575;28;20356;-79
2022/06/27 04:10:33;;;;;;;6.43;5.68;;;;;;;27.54;51.48;101565.72;10468234;28;20037;-83
2022/06/27 04:15:35;;;;;;;6.13;5.53;;;;;;;27.52;50.98;101556.00;10462102;28;20056;-83
2022/06/27 04:20:56;;;;;;;6.75;6.15;;;;;;;27.88;50.68;101569.56;10486108;28;20057;-79
2022/06/27 04:26:05;;;;;;;6.55;5.80;;;;;;;27.96;50.39;101575.34;10466760;28;20056;-81
2022/06/27 04:31:07;;;;;;;7.32;5.57;;;;;;;28.18;49.63;101566.84;10486549;28;20048;-80
2022/06/27 04:36:12;;;;;;;7.43;6.07;;;;;;;28.03;50.31;101564.19;10466352;28;20059;-80
2022/06/27 04:41:14;;;;;;;7.15;6.30;;;;;;;28.64;49.45;101563.94;10463172;28;20036;-80
2022/06/27 04:46:21;;;;;;;7.15;6.45;;;;;;;28.98;48.38;101566.81;10446106;28;20083;-80
2022/06/27 04:51:54;;;;;;;7.53;5.95;;;;;;;29.47;48.19;101562.97;10462303;28;20044;-80
2022/06/27 04:56:57;;;;;;;6.65;5.95;;;;;;;29.68;47.68;101571.69;10477927;28;20053;-81
2022/06/27 05:02:00;;;;;;;8.55;6.30;;;;;;;29.99;47.48;101573.16;10468076;28;20045;-80
2022/06/27 05:07:03;;;;;;;7.03;6.05;;;;;;;30.26;46.99;101563.28;10465704;28;20052;-80
2022/06/27 05:12:05;;;;;;;8.27;6.43;;;;;;;30.62;45.75;101566.38;10445937;28;20053;-80
2022/06/27 05:17:08;;;;;;;9.57;6.57;;;;;;;30.80;44.62;101563.63;10463015;28;20053;-80
2022/06/27 05:22:11;;;;;;;7.93;6.35;;;;;;;31.02;44.66;101564.53;10464606;28;20535;-80
2022/06/27 05:27:14;;;;;;;10.00;6.18;;;;;;;31.27;43.99;101565.47;10468394;28;20131;-81
2022/06/27 05:32:16;;;;;;;7.40;6.28;;;;;;;31.51;43.41;101552.56;10438070;28;20041;-80
2022/06/27 05:37:18;;;;;;;7.60;6.50;;;;;;;31.83;42.55;101552.63;10433700;28;20060;-80
2022/06/27 05:42:21;;;;;;;9.10;5.95;;;;;;;32.18;41.55;101556.66;10412913;28;20053;-80
2022/06/27 05:47:25;;;;;;;6.72;5.55;;;;;;;32.42;40.64;101558.66;10443076;28;20053;-80
2022/06/27 05:52:52;;;;;;;;;;;;;;;32.57;40.37;101560.25;10427516;28;20041;-80
2022/06/27 05:57:57;;;;;;;9.73;6.25;;;;;;;32.60;40.73;101559.41;10438921;28;20028;-80
2022/06/27 06:02:59;;;;;;;6.00;5.40;;;;;;;32.78;40.15;101561.41;10421649;28;20401;-80
2022/06/27 06:08:03;;;;;;;6.32;5.70;;;;;;;32.94;39.78;101573.94;10420196;28;20037;-80
2022/06/27 06:13:06;;;;;;;7.85;5.90;;;;;;;33.08;38.81;101561.72;10444545;28;20060;-80
2022/06/27 06:18:09;;;;;;;6.88;5.60;;;;;;;33.38;38.57;101568.91;10446277;28;20049;-80
2022/06/27 06:23:11;;;;;;;5.65;5.13;;;;;;;33.72;38.69;101564.19;10449979;28;20037;-81
2022/06/27 06:28:14;;;;;;;5.88;5.30;;;;;;;34.04;38.10;101568.84;10418823;28;20049;-81
2022/06/27 06:33:18;;;;;;;8.07;5.70;;;;;;;34.04;37.83;101557.47;10446369;28;20546;-81
2022/06/27 06:38:20;;;;;;;6.70;5.72;;;;;;;34.25;37.44;101567.84;10444977;28;20053;-81
2022/06/27 06:43:24;;;;;;;6.38;5.20;;;;;;;34.16;36.65;101568.31;10448419;28;20044;-80
2022/06/27 06:48:46;;;;;;;6.07;5.50;;;;;;;34.51;35.96;101572.88;10449325;28;20053;-81
2022/06/27 06:53:50;;;;;;;7.68;5.55;;;;;;;34.47;35.40;101567.22;10415022;28;20054;-80
2022/06/27 06:58:53;;;;;;;18.27;7.20;;;;;;;34.80;35.06;101567.66;10440395;28;20057;-81
2022/06/27 07:03:55;;;;;;;8.95;5.70;;;;;;;34.98;34.35;101568.28;10445164;28;20667;-79
2022/06/27 07:08:59;;;;;;;6.63;5.70;;;;;;;35.05;34.32;101565.31;10447646;28;20508;-80
2022/06/27 07:14:02;;;;;;;6.82;5.80;;;;;;;35.17;34.45;101569.66;10418680;28;20413;-80
2022/06/27 07:19:06;;;;;;;9.35;5.85;;;;;;;35.38;33.88;101574.25;10426397;28;20061;-82
2022/06/27 07:24:08;;;;;;;10.05;5.60;;;;;;;35.09;32.79;101578.75;10441804;28;20053;-81
2022/06/27 07:29:11;;;;;;;6.60;5.47;;;;;;;34.80;32.30;101569.69;10442688;28;20384;-81
2022/06/27 07:34:17;;;;;;;11.52;5.90;;;;;;;35.08;31.80;101577.94;10444596;28;20048;-80
2022/06/27 07:39:20;;;;;;;6.85;6.07;;;;;;;35.33;32.40;101577.56;10426607;28;20067;-80
2022/06/27 07:44:24;;;;;;;9.80;5.97;;;;;;;35.24;31.26;101565.91;10475040;28;20511;-80
2022/06/27 07:49:26;;;;;;;7.65;5.78;;;;;;;34.99;32.59;101563.38;10456605;28;20450;-80
2022/06/27 07:54:28;;;;;;;7.28;6.55;;;;;;;35.07;33.03;101562.06;10448382;28;20041;-80
2022/06/27 07:59:31;;;;;;;8.98;6.28;;;;;;;35.07;32.81;101569.81;10476396;28;20041;-80
2022/06/27 08:04:36;;;;;;;8.65;5.88;;;;;;;35.50;32.80;101561.47;10486119;28;20040;-80
2022/06/27 08:09:39;;;;;;;6.30;5.67;;;;;;;35.55;30.30;101558.91;10487288;28;20037;-80
2022/06/27 08:14:41;;;;;;;8.32;5.53;;;;;;;35.57;30.45;101559.28;10487960;28;20041;-80
2022/06/27 08:19:44;;;;;;;8.00;6.15;;;;;;;35.78;30.98;101563.88;10483424;28;20048;-80
2022/06/27 08:24:47;;;;;;;6.75;5.47;;;;;;;35.56;28.76;101566.25;10467698;28;20045;-81
2022/06/27 08:29:49;;;;;;;6.60;5.85;;;;;;;35.21;30.24;101572.44;10485395;28;20036;-81
2022/06/27 08:34:55;;;;;;;9.68;5.93;;;;;;;35.27;31.40;101562.19;10482336;28;20045;-80
2022/06/27 08:39:58;;;;;;;13.40;5.93;;;;;;;35.20;31.60;101568.78;10443411;28;20412;-80
2022/06/27 08:45:02;;;;;;;7.85;6.00;;;;;;;35.52;31.71;101562.63;10475215;28;20450;-80
2022/06/27 08:50:07;;;;;;;6.60;6.00;;;;;;;35.71;31.52;101563.97;10482276;28;20045;-80
2022/06/27 08:55:09;;;;;;;7.32;6.03;;;;;;;35.63;30.75;101553.91;10484263;28;20435;-80
2022/06/27 09:00:15;;;;;;;8.48;5.80;;;;;;;35.56;31.25;101562.56;10485146;28;20045;-80
2022/06/27 09:05:27;;;;;;;9.30;6.30;;;;;;;35.21;31.02;101563.88;10485558;28;20048;-80
2022/06/27 09:10:30;;;;;;;6.95;6.13;;;;;;;34.88;32.20;101559.84;10465978;28;20052;-80
2022/06/27 09:15:39;;;;;;;7.85;5.63;;;;;;;34.81;31.93;101562.75;10467616;28;20408;-80
2022/06/27 09:20:48;;;;;;;6.70;6.05;;;;;;;34.76;31.61;101564.03;10468346;28;20045;-80
2022/06/27 09:26:01;;;;;;;7.65;6.00;;;;;;;34.50;31.17;101565.56;10452073;28;20090;-80
2022/06/27 09:31:04;;;;;;;8.80;6.03;;;;;;;34.01;31.78;101561.13;10467874;28;20067;-80
2022/06/27 09:36:14;;;;;;;9.93;7.55;;;;;;;33.56;32.08;101559.03;10484943;28;20056;-80
2022/06/27 09:41:16;;;;;;;5.95;5.40;;;;;;;33.33;32.41;101555.94;10483514;28;20061;-80
2022/06/27 09:46:19;;;;;;;6.15;5.55;;;;;;;33.34;32.13;101563.25;10466271;28;20415;-76
2022/06/27 09:51:22;;;;;;;5.90;5.40;;;;;;;33.14;32.18;101564.91;10482392;28;20057;-76
2022/06/27 09:56:25;;;;;;;8.75;5.82;;;;;;;33.05;32.40;101573.09;10463534;28;20038;-75
2022/06/27 10:01:28;;;;;;;8.65;5.70;;;;;;;32.67;32.82;101569.97;10485877;28;20041;-78
2022/06/27 10:06:31;;;;;;;6.55;5.97;;;;;;;32.30;33.46;101584.69;10480938;28;20037;-77
2022/06/27 10:11:35;;;;;;;5.93;5.32;;;;;;;32.34;33.22;101579.78;10459334;28;20053;-78
2022/06/27 10:16:49;;;;;;;6.68;5.38;;;;;;;32.31;33.13;101577.78;10488862;28;20033;-77
2022/06/27 10:21:52;;;;;;;13.48;9.55;;;;;;;32.17;33.05;101587.09;10472672;28;20048;-78
2022/06/27 10:26:57;;;;;;;10.10;6.03;;;;;;;32.11;33.31;101583.03;10469716;28;20053;-79
2022/06/27 10:32:05;;;;;;;8.10;6.40;;;;;;;31.97;32.98;101578.16;10452757;28;20080;-78
2022/06/27 10:37:25;;;;;;;6.10;5.47;;;;;;;32.07;33.01;101577.34;10470428;28;20045;-78
2022/06/27 10:42:53;;;;;;;7.25;5.38;;;;;;;31.93;32.91;101571.66;10484345;28;20041;-78
2022/06/27 10:47:57;;;;;;;6.25;5.53;;;;;;;31.84;33.44;101574.09;10483021;28;20061;-80
2022/06/27 10:53:18;;;;;;;6.93;4.80;;;;;;;31.79;33.51;101574.50;10480922;28;20048;-79
2022/06/27 10:58:28;;;;;;;5.60;5.10;;;;;;;31.77;32.46;101580.59;10490908;28;20427;-78
2022/06/27 11:03:33;;;;;;;5.80;5.30;;;;;;;31.57;33.42;101567.16;10489373;28;20131;-77
2022/06/27 11:08:37;;;;;;;7.07;5.40;;;;;;;31.47;33.75;101566.72;10464492;28;20044;-77
2022/06/27 11:13:52;;;;;;;8.60;5.05;;;;;;;31.43;33.18;101567.94;10490630;28;20052;-77
2022/06/27 11:18:58;;;;;;;7.18;6.35;;;;;;;31.53;33.35;101566.34;10465871;28;20044;-75
2022/06/27 11:24:04;;;;;;;7.30;5.37;;;;;;;31.37;33.92;101573.19;10481577;28;20045;-76
2022/06/27 11:34:29;;;;;;;5.97;4.90;;;;;;;31.43;34.61;101565.13;10486454;28;20847;-76
2022/06/27 11:39:33;;;;;;;7.45;5.85;;;;;;;31.35;34.25;101569.94;10482683;28;20052;-81
2022/06/27 11:44:36;;;;;;;7.45;5.82;;;;;;;31.23;34.88;101575.97;10440047;28;20041;-78
2022/06/27 11:49:40;;;;;;;7.15;5.35;;;;;;;31.15;34.92;101568.66;10471945;28;20043;-78
2022/06/27 11:54:45;;;;;;;8.10;5.10;;;;;;;31.14;34.77;101575.53;10488365;28;20049;-75
2022/06/27 11:59:48;;;;;;;7.15;5.63;;;;;;;31.15;35.42;101571.47;10483846;28;20053;-78
2022/06/27 12:05:08;;;;;;;6.20;5.60;;;;;;;31.22;35.06;101571.50;10487975;28;20155;-78
2022/06/27 12:10:10;;;;;;;5.50;5.03;;;;;;;31.21;35.06;101578.41;10469719;28;20068;-77
2022/06/27 12:15:23;;;;;;;7.82;5.50;;;;;;;31.12;35.89;101566.59;10459447;28;20041;-75
2022/06/27 12:20:27;;;;;;;7.32;5.50;;;;;;;31.09;36.09;101567.41;10450922;28;20419;-75
2022/06/27 12:25:30;;;;;;;7.30;5.50;;;;;;;31.00;36.12;101564.13;10477059;28;20520;-75
2022/06/27 12:30:33;;;;;;;6.40;5.10;;;;;;;31.01;36.07;101565.75;10434665;28;20048;-80
2022/06/27 12:35:36;;;;;;;6.07;5.45;;;;;;;31.03;35.99;101557.66;10481783;28;20041;-81
2022/06/27 12:40:38;;;;;;;5.78;5.18;;;;;;;30.96;36.24;101555.63;10453205;28;20057;-81
2022/06/27 12:45:40;;;;;;;5.72;5.07;;;;;;;30.92;36.67;101560.47;10475544;28;20040;-86
2022/06/27 12:50:43;;;;;;;6.30;5.70;;;;;;;30.85;36.54;101563.25;10473821;28;20040;-83
2022/06/27 12:55:45;;;;;;;6.28;5.53;;;;;;;30.79;36.70;101568.50;10468776;28;20040;-84
2022/06/27 13:00:48;;;;;;;6.72;6.03;;;;;;;30.72;37.13;101559.97;10470565;28;20052;-85
2022/06/27 13:05:50;;;;;;;6.43;5.68;;;;;;;30.65;37.60;101562.75;10445048;28;20507;-81
2022/06/27 13:10:53;;;;;;;8.15;5.80;;;;;;;30.55;37.66;101557.81;10482270;28;20045;-82
2022/06/27 13:15:56;;;;;;;6.82;5.45;;;;;;;30.48;37.99;101549.25;10435366;28;20049;-85
2022/06/27 13:20:58;;;;;;;6.53;5.57;;;;;;;30.40;37.96;101544.78;10436082;28;20541;-76
2022/06/27 13:26:02;;;;;;;7.13;5.13;;;;;;;30.35;37.91;101545.13;10481397;28;20049;-77
2022/06/27 13:31:05;;;;;;;6.43;5.85;;;;;;;30.33;38.46;101531.38;10478860;28;20063;-77
2022/06/27 13:36:08;;;;;;;8.10;5.20;;;;;;;30.34;38.86;101532.19;10458608;28;20495;-77
2022/06/27 13:41:10;;;;;;;6.43;5.80;;;;;;;30.33;38.58;101531.38;10474675;28;20057;-76
2022/06/27 13:46:12;;;;;;;7.05;5.32;;;;;;;30.28;38.84;101535.41;10442568;28;20049;-78
2022/06/27 13:51:14;;;;;;;7.75;5.75;;;;;;;30.24;39.15;101525.25;10480350;28;20053;-75
2022/06/27 13:56:17;;;;;;;7.03;5.10;;;;;;;30.34;38.73;101520.84;10485175;28;20052;-76
2022/06/27 14:01:19;;;;;;;6.97;5.10;;;;;;;30.32;38.75;101521.25;10485924;28;20530;-76
2022/06/27 14:11:42;;;;;;;7.32;5.10;;;;;;;30.21;39.08;101521.22;10482433;28;20049;-76
2022/06/27 14:16:45;;;;;;;6.80;5.03;;;;;;;30.22;39.75;101517.16;10481156;28;20048;-81
2022/06/27 14:21:47;;;;;;;8.63;5.80;;;;;;;30.19;39.28;101517.13;10482481;28;20078;-81
2022/06/27 14:26:49;;;;;;;5.65;5.15;;;;;;;30.10;38.77;101511.00;10462360;28;20033;-82
2022/06/27 14:31:52;;;;;;;6.22;5.03;;;;;;;30.06;39.34;101507.34;10466407;28;20068;-81
2022/06/27 14:36:54;;;;;;;7.20;5.20;;;;;;;30.01;39.66;101503.63;10484761;28;20052;-79
2022/06/27 14:41:56;;;;;;;6.40;5.70;;;;;;;30.00;38.97;101504.03;10476453;28;20049;-78
2022/06/27 14:46:59;;;;;;;5.82;5.22;;;;;;;29.89;39.46;101497.50;10489171;28;20040;-82
2022/06/27 14:52:02;;;;;;;7.30;5.50;;;;;;;29.86;39.94;101495.44;10482419;28;20060;-82
2022/06/27 14:57:04;;;;;;;6.55;5.65;;;;;;;29.82;39.90;101500.25;10467615;28;20411;-77
2022/06/27 15:02:06;;;;;;;8.63;5.72;;;;;;;29.79;39.75;101490.53;10472908;28;20148;-76
2022/06/27 15:07:09;;;;;;;8.52;6.20;;;;;;;29.75;39.46;101500.19;10478250;28;20046;-79
2022/06/27 15:12:11;;;;;;;6.25;5.25;;;;;;;29.74;39.91;101498.56;10481122;28;20044;-78
2022/06/27 15:17:13;;;;;;;6.10;5.50;;;;;;;29.70;40.03;101499.38;10484211;28;20506;-81
2022/06/27 15:22:16;;;;;;;9.65;5.53;;;;;;;29.70;39.46;101495.72;10452952;28;20033;-86
2022/06/27 15:27:20;;;;;;;7.75;5.20;;;;;;;29.63;39.66;101501.31;10472401;28;20053;-78
2022/06/27 15:32:22;;;;;;;8.60;6.32;;;;;;;29.63;40.29;101510.59;10468431;28;20041;-81
2022/06/27 15:37:25;;;;;;;6.63;5.95;;;;;;;29.60;40.54;101505.72;10486218;28;20049;-79
2022/06/27 15:42:27;;;;;;;6.38;5.68;;;;;;;29.52;39.99;101509.72;10483027;28;20044;-79
2022/06/27 15:47:29;;;;;;;6.50;5.85;;;;;;;29.49;40.25;101499.16;10490082;28;20424;-79
2022/06/27 15:52:36;;;;;;;9.05;6.53;;;;;;;29.40;40.86;101495.81;10488864;28;20041;-79
2022/06/27 15:57:38;;;;;;;10.25;6.50;;;;;;;29.32;40.48;101494.09;10471379;28;20585;-80
2022/06/27 16:02:41;;;;;;;10.00;5.90;;;;;;;29.31;41.05;101487.63;10488016;28;20052;-79
2022/06/27 16:07:43;;;;;;;7.40;6.07;;;;;;;29.35;41.17;101482.84;10449407;28;20049;-85
2022/06/27 16:12:46;;;;;;;7.15;5.93;;;;;;;29.34;40.83;101486.88;10438419;28;20559;-79
2022/06/27 16:17:48;;;;;;;8.10;5.88;;;;;;;29.42;41.52;101490.59;10435956;28;20041;-93
2022/06/27 16:22:50;;;;;;;8.13;5.72;;;;;;;29.40;40.81;101485.31;10456932;28;20041;-88
2022/06/27 16:27:52;;;;;;;7.97;6.00;;;;;;;29.40;40.97;101490.16;10477972;28;20045;-94
2022/06/27 16:32:55;;;;;;;6.85;6.03;;;;;;;29.40;40.74;101485.31;10462027;28;20044;-87
2022/06/27 16:37:57;;;;;;;7.38;5.78;;;;;;;29.47;41.03;101495.91;10465159;28;20522;-83
2022/06/27 16:43:15;;;;;;;8.00;6.20;;;;;;;29.46;40.28;101493.47;10463285;28;20057;-84
2022/06/27 16:48:19;;;;;;;9.63;6.00;;;;;;;29.42;40.81;101490.59;10449530;28;20056;-85
2022/06/27 16:53:22;;;;;;;8.30;5.35;;;;;;;29.40;40.62;101482.50;10480787;28;20061;-89
2022/06/27 16:58:26;;;;;;;8.45;5.82;;;;;;;29.39;40.91;101482.88;10481287;28;20049;-84
2022/06/27 17:03:29;;;;;;;9.95;5.53;;;;;;;29.37;40.58;101480.44;10449342;28;20033;-83
2022/06/27 17:08:31;;;;;;;8.82;7.45;;;;;;;29.34;40.60;101480.41;10464481;28;20044;-81
2022/06/27 17:13:34;;;;;;;8.70;6.82;;;;;;;29.32;41.95;101479.97;10472176;28;20049;-82
2022/06/27 17:18:36;;;;;;;9.43;6.57;;;;;;;29.24;42.27;101475.47;10481303;28;20068;-81
2022/06/27 17:23:38;;;;;;;10.95;7.18;;;;;;;29.15;42.26;101477.78;10480829;28;20056;-82
2022/06/27 17:28:41;;;;;;;10.88;6.18;;;;;;;29.07;42.53;101472.06;10459856;28;20040;-83
2022/06/27 17:33:43;;;;;;;9.40;6.15;;;;;;;28.98;42.02;101479.22;10463515;28;20413;-82
2022/06/27 17:38:45;;;;;;;10.30;6.50;;;;;;;28.86;42.02;101483.13;10478843;28;20066;-82
2022/06/27 17:43:48;;;;;;;7.25;6.22;;;;;;;28.80;42.97;101484.63;10455877;28;20056;-82
2022/06/27 17:48:51;;;;;;;6.78;6.07;;;;;;;28.72;42.83;101486.56;10483433;28;20065;-84
2022/06/27 17:53:53;;;;;;;11.25;5.90;;;;;;;28.66;43.10;101487.31;10484052;28;20040;-81
2022/06/27 17:58:55;;;;;;;8.88;6.60;;;;;;;28.62;42.87;101483.59;10476125;28;20037;-83
2022/06/27 18:03:58;;;;;;;7.88;6.55;;;;;;;28.51;43.51;101475.81;10464369;28;20049;-81
2022/06/27 18:09:01;;;;;;;10.75;6.50;;;;;;;28.44;43.43;101489.81;10483526;28;20048;-80
2022/06/27 18:14:03;;;;;;;9.18;6.18;;;;;;;28.41;43.26;101484.13;10455408;28;20033;-81
2022/06/27 18:19:10;;;;;;;25.30;8.25;;;;;;;28.37;43.48;101486.91;10496598;28;20052;-80
2022/06/27 18:24:13;;;;;;;22.48;8.55;;;;;;;28.40;42.82;101486.16;10475166;28;20045;-79
2022/06/27 18:29:26;;;;;;;13.30;7.43;;;;;;;28.42;42.61;101491.41;10489174;28;20053;-80
2022/06/27 18:34:29;;;;;;;24.20;9.32;;;;;;;28.43;42.87;101488.19;10471732;28;20029;-82
2022/06/27 18:39:33;;;;;;;16.38;9.30;;;;;;;28.40;44.05;101490.97;10475488;28;20063;-82
2022/06/27 18:44:35;;;;;;;11.90;8.50;;;;;;;28.37;43.25;101494.56;10491813;28;20044;-81
2022/06/27 18:49:37;;;;;;;11.68;6.95;;;;;;;28.35;41.82;101494.16;10465395;28;20036;-81
2022/06/27 18:54:41;;;;;;;13.50;6.88;;;;;;;28.23;43.53;101509.25;10490449;28;20056;-81
2022/06/27 18:59:44;;;;;;;14.90;9.05;;;;;;;27.99;44.86;101515.34;10438960;28;20136;-81
2022/06/27 19:04:58;;;;;;;11.65;7.95;;;;;;;27.76;45.87;101513.34;10473079;28;20040;-82
2022/06/27 19:10:02;;;;;;;11.57;7.65;;;;;;;27.62;46.10;101516.75;10465352;28;20072;-82
2022/06/27 19:15:05;;;;;;;14.05;7.55;;;;;;;27.40;47.09;101519.53;10449357;28;20046;-82
2022/06/27 19:20:09;;;;;;;10.75;8.63;;;;;;;27.06;48.72;101527.75;10480860;28;20053;-82
2022/06/27 19:25:12;;;;;;;12.00;7.72;;;;;;;26.87;48.48;101531.34;10489305;28;20057;-83
2022/06/27 19:30:15;;;;;;;8.35;7.20;;;;;;;26.67;49.85;101532.53;10431640;28;20424;-86
2022/06/27 19:35:17;;;;;;;8.18;6.75;;;;;;;26.46;50.44;101537.69;10455143;28;20440;-83
2022/06/27 19:40:20;;;;;;;9.07;7.15;;;;;;;26.39;50.12;101549.63;10463488;28;20053;-82
2022/06/27 19:45:23;;;;;;;8.55;7.32;;;;;;;26.28;50.40;101545.72;10481360;28;20529;-81
2022/06/27 19:50:25;;;;;;;9.88;7.13;;;;;;;26.19;50.68;101545.06;10479528;28;20042;-81
2022/06/27 19:55:28;;;;;;;9.00;7.00;;;;;;;26.09;51.44;101541.66;10431410;28;20047;-82
2022/06/27 20:00:31;;;;;;;7.88;6.97;;;;;;;26.00;51.05;101554.25;10457016;28;20065;-80
2022/06/27 20:05:33;;;;;;;9.25;7.15;;;;;;;26.04;51.24;101556.00;10413901;28;20052;-81
2022/06/27 20:10:35;;;;;;;8.57;6.88;;;;;;;26.09;51.23;101552.91;10433562;28;20045;-81
2022/06/27 20:15:38;;;;;;;12.07;7.70;;;;;;;26.11;50.81;101556.16;10449313;28;20056;-78
2022/06/27 20:20:41;;;;;;;7.13;6.35;;;;;;;26.14;51.02;101555.44;10465186;28;20539;-78
2022/06/27 20:25:43;;;;;;;7.45;6.70;;;;;;;26.14;50.10;101551.81;10452904;28;20052;-80
2022/06/27 20:30:46;;;;;;;8.85;6.22;;;;;;;26.17;50.64;101556.69;10445106;28;20517;-83
2022/06/27 20:35:48;;;;;;;8.52;6.15;;;;;;;26.16;50.19;101546.63;10445672;28;20045;-84
2022/06/27 20:40:54;;;;;;;6.88;6.22;;;;;;;26.16;50.61;101560.69;10455887;28;20049;-85
2022/06/27 20:45:56;;;;;;;7.97;6.10;;;;;;;26.12;50.67;101548.53;10455349;28;20432;-82
2022/06/27 20:50:58;;;;;;;7.03;6.22;;;;;;;26.07;50.00;101560.91;10470068;28;20265;-86
2022/06/27 20:56:01;;;;;;;8.60;6.15;;;;;;;26.10;49.73;101565.78;10433999;28;20427;-86
2022/06/27 21:01:06;;;;;;;12.40;7.00;;;;;;;26.11;49.86;101561.78;10484539;28;20048;-84
2022/06/27 21:06:08;;;;;;;7.90;6.65;;;;;;;26.08;50.25;101564.53;10484475;28;20056;-84
2022/06/27 21:16:32;;;;;;;9.63;6.50;;;;;;;26.02;48.74;101572.41;10487338;28;20044;-78
2022/06/27 21:21:34;;;;;;;12.38;6.65;;;;;;;25.98;49.33;101582.75;10424384;28;20041;-84
2022/06/27 21:26:37;;;;;;;12.68;7.22;;;;;;;25.92;49.41;101575.78;10471502;28;20056;-84
2022/06/27 21:31:39;;;;;;;12.05;7.50;;;;;;;25.78;48.68;101575.41;10440430;28;20046;-80
2022/06/27 21:36:42;;;;;;;15.88;6.95;;;;;;;25.69;48.71;101588.84;10448532;28;20040;-81
2022/06/27 21:41:45;;;;;;;13.23;7.03;;;;;;;25.64;47.95;101591.88;10450520;28;20053;-82
2022/06/27 21:46:47;;;;;;;11.93;7.63;;;;;;;25.58;48.07;101591.31;10428974;28;20136;-81
2022/06/27 21:51:49;;;;;;;9.85;6.07;;;;;;;25.47;47.02;101588.22;10486860;28;20175;-82
2022/06/27 21:56:52;;;;;;;8.90;6.32;;;;;;;25.39;47.23;101592.00;10487049;28;20045;-84
2022/06/27 22:01:54;;;;;;;9.90;5.80;;;;;;;25.27;46.83;101592.06;10499742;28;20048;-85
2022/06/27 22:06:56;;;;;;;10.85;7.88;;;;;;;25.15;46.55;101598.53;10470726;28;20033;-83
2022/06/27 22:11:58;;;;;;;12.70;6.38;;;;;;;24.96;46.37;101595.53;10469096;28;20057;-82
2022/06/27 22:17:01;;;;;;;10.50;5.80;;;;;;;24.88;47.95;101594.53;10488427;28;20048;-82
2022/06/27 22:22:03;;;;;;;8.15;5.95;;;;;;;24.85;47.87;101600.03;10482337;28;20037;-85
2022/06/27 22:27:06;;;;;;;10.75;5.85;;;;;;;24.77;48.00;101592.56;10472622;28;20538;-80
2022/06/27 22:32:08;;;;;;;9.27;7.05;;;;;;;24.62;47.86;101592.09;10455258;28;20037;-78
2022/06/27 22:37:10;;;;;;;8.55;6.90;;;;;;;24.52;49.19;101597.41;10467721;28;20037;-81
2022/06/27 22:42:13;;;;;;;8.73;5.72;;;;;;;24.44;49.26;101607.56;10443712;28;20542;-77
2022/06/27 22:47:16;;;;;;;5.80;5.13;;;;;;;24.37;48.90;101614.94;10449622;28;20041;-77
2022/06/27 22:52:18;;;;;;;6.68;5.10;;;;;;;24.25;49.44;101605.31;10430784;28;20041;-80
2022/06/27 22:57:20;;;;;;;5.30;4.68;;;;;;;24.23;49.97;101612.47;10449075;28;20049;-82
2022/06/27 23:02:22;;;;;;;5.45;4.95;;;;;;;24.09;51.11;101609.19;10442982;28;20504;-77
2022/06/27 23:07:25;;;;;;;5.18;4.10;;;;;;;24.11;50.65;101615.25;10464632;28;20052;-77
2022/06/27 23:12:27;;;;;;;8.68;6.15;;;;;;;24.17;50.67;101611.88;10457937;28;20061;-77
2022/06/27 23:17:29;;;;;;;5.95;5.40;;;;;;;23.95;51.65;101620.72;10453330;28;20063;-82
2022/06/27 23:22:31;;;;;;;9.98;5.65;;;;;;;23.74;54.10;101635.63;10450847;28;20053;-83
2022/06/27 23:27:34;;;;;;;7.63;5.93;;;;;;;23.55;55.06;101628.91;10468541;28;20055;-79
2022/06/27 23:32:37;;;;;;;5.03;4.15;;;;;;;23.38;57.96;101643.88;10442085;28;20049;-79
2022/06/27 23:37:39;;;;;;;6.35;5.05;;;;;;;23.19;60.54;101643.56;10459156;28;20048;-80
2022/06/27 23:42:42;;;;;;;7.55;5.90;;;;;;;22.94;62.42;101637.03;10457924;28;20076;-77